Time;durP1;ratioP1;P1;durP2;ratioP2;P2;SDS_P1;SDS_P2;PMS_P1;PMS_P2;Temp;Humidity;BMP_temperature;BMP_pressure;BME280_temperature;BME280_humidity;BME280_pressure;Samples;Min_cycle;Max_cycle;Signal;HPM_P1;HPM_P2
2024/02/12 00:00:36;;;;;;;11.90;4.53;;;6.20;99.90;;;;;;5105931;28;20224;-50
2024/02/12 00:03:05;;;;;;;14.68;5.28;;;6.20;99.90;;;;;;5106030;28;20035;-51
2024/02/12 00:05:34;;;;;;;19.85;5.97;;;6.10;99.90;;;;;;5105850;28;20028;-50
2024/02/12 00:08:04;;;;;;;11.32;3.08;;;6.20;99.90;;;;;;5105534;28;20073;-50
2024/02/12 00:10:30;;;;;;;9.68;2.63;;;6.10;99.90;;;;;;5105843;28;20090;-50
2024/02/12 00:12:55;;;;;;;22.55;8.90;;;6.10;99.90;;;;;;5105911;28;20036;-51
2024/02/12 00:15:22;;;;;;;16.10;5.80;;;6.00;99.90;;;;;;5104982;28;20019;-50
2024/02/12 00:17:49;;;;;;;30.35;12.63;;;6.10;99.90;;;;;;5105239;28;20055;-50
2024/02/12 00:20:16;;;;;;;10.05;3.03;;;6.00;99.90;;;;;;5105696;28;20244;-50
2024/02/12 00:22:42;;;;;;;29.17;9.82;;;6.00;99.90;;;;;;5105423;28;20054;-50
2024/02/12 00:25:11;;;;;;;7.57;1.70;;;6.00;99.90;;;;;;5105252;28;20024;-51
2024/02/12 00:27:37;;;;;;;14.35;3.25;;;6.00;99.90;;;;;;5105796;28;20024;-50
2024/02/12 00:30:08;;;;;;;9.60;3.10;;;6.00;99.90;;;;;;5104765;28;20222;-50
2024/02/12 00:32:34;;;;;;;12.57;2.40;;;6.00;99.90;;;;;;5105674;28;20028;-50
2024/02/12 00:35:00;;;;;;;6.80;2.10;;;5.90;99.90;;;;;;5105543;28;20034;-49
2024/02/12 00:37:26;;;;;;;5.90;1.85;;;5.90;99.90;;;;;;5105599;28;20024;-50
2024/02/12 00:39:52;;;;;;;7.45;2.60;;;5.90;99.90;;;;;;5105114;28;20061;-49
2024/02/12 00:42:18;;;;;;;10.02;3.78;;;5.90;99.90;;;;;;5108772;28;20024;-46
2024/02/12 00:44:44;;;;;;;13.45;4.00;;;5.90;99.90;;;;;;5108541;28;20032;-46
2024/02/12 00:47:10;;;;;;;14.23;5.82;;;5.80;99.90;;;;;;5109099;28;20066;-46
2024/02/12 00:49:36;;;;;;;12.88;4.07;;;5.80;99.90;;;;;;5109294;28;20054;-45
2024/02/12 00:52:03;;;;;;;9.50;3.10;;;5.80;99.90;;;;;;5108246;28;20024;-48
2024/02/12 00:54:30;;;;;;;8.75;2.65;;;5.70;99.90;;;;;;5109222;28;20039;-46
2024/02/12 00:56:57;;;;;;;10.45;2.15;;;5.80;99.90;;;;;;5108673;28;20036;-48
2024/02/12 00:59:23;;;;;;;8.00;2.50;;;5.70;99.90;;;;;;5109327;28;20028;-47
2024/02/12 01:01:49;;;;;;;9.07;2.10;;;5.80;99.90;;;;;;5108961;28;20309;-47
2024/02/12 01:04:15;;;;;;;6.30;1.83;;;5.80;99.90;;;;;;5109026;28;20027;-48
2024/02/12 01:06:41;;;;;;;5.25;1.90;;;5.80;99.90;;;;;;5109100;28;20182;-46
2024/02/12 01:09:11;;;;;;;6.93;1.52;;;5.80;99.90;;;;;;5108850;28;20286;-47
2024/02/12 01:11:38;;;;;;;7.13;1.75;;;5.70;99.90;;;;;;5107727;28;20020;-48
2024/02/12 01:14:04;;;;;;;7.20;1.38;;;5.80;99.90;;;;;;5107838;28;20218;-47
2024/02/12 01:16:32;;;;;;;13.77;1.70;;;5.80;99.90;;;;;;5108221;28;20036;-45
2024/02/12 01:18:58;;;;;;;4.47;1.48;;;5.80;99.90;;;;;;5108960;28;20301;-48
2024/02/12 01:21:25;;;;;;;8.15;1.35;;;5.70;99.90;;;;;;5108835;28;20081;-48
2024/02/12 01:23:51;;;;;;;7.22;1.45;;;5.70;99.90;;;;;;5108582;28;20024;-48
2024/02/12 01:26:16;;;;;;;5.88;1.88;;;5.80;99.90;;;;;;5107609;28;20031;-48
2024/02/12 01:28:42;;;;;;;6.38;1.30;;;5.80;99.90;;;;;;5107345;28;20294;-48
2024/02/12 01:31:15;;;;;;;5.57;1.50;;;5.70;99.90;;;;;;5108262;28;20035;-48
2024/02/12 01:33:42;;;;;;;9.52;1.40;;;5.70;99.90;;;;;;5108579;28;20270;-45
2024/02/12 01:36:08;;;;;;;5.15;1.70;;;5.70;99.90;;;;;;5108499;28;20093;-45
2024/02/12 01:38:33;;;;;;;8.13;1.80;;;5.70;99.90;;;;;;5108319;28;20031;-47
2024/02/12 01:41:02;;;;;;;4.28;1.33;;;5.70;99.90;;;;;;5108063;28;20052;-46
2024/02/12 01:43:31;;;;;;;6.03;1.20;;;5.80;99.90;;;;;;5107869;28;20019;-49
2024/02/12 01:46:00;;;;;;;6.28;1.30;;;5.80;99.90;;;;;;5108160;28;20159;-47
2024/02/12 01:48:30;;;;;;;5.43;1.10;;;5.70;99.90;;;;;;5108227;28;20032;-49
2024/02/12 01:50:56;;;;;;;8.93;1.33;;;5.80;99.90;;;;;;5108291;28;20023;-48
2024/02/12 01:53:22;;;;;;;5.72;1.45;;;5.80;99.90;;;;;;5105778;28;20282;-46
2024/02/12 01:55:48;;;;;;;8.23;1.33;;;5.80;99.90;;;;;;5106918;28;20091;-46
2024/02/12 01:58:14;;;;;;;4.88;0.93;;;5.80;99.90;;;;;;5107172;28;20073;-46
2024/02/12 02:00:44;;;;;;;4.53;1.00;;;5.80;99.90;;;;;;5107881;28;20273;-47
2024/02/12 02:03:11;;;;;;;3.42;1.02;;;5.80;99.90;;;;;;5108007;28;20020;-48
2024/02/12 02:05:36;;;;;;;6.80;1.20;;;5.80;99.90;;;;;;5107754;28;20027;-48
2024/02/12 02:08:02;;;;;;;3.90;0.93;;;5.80;99.90;;;;;;5106851;28;20141;-46
2024/02/12 02:10:29;;;;;;;6.20;1.10;;;5.80;99.90;;;;;;5107810;28;20043;-49
2024/02/12 02:12:56;;;;;;;6.38;1.20;;;5.80;99.90;;;;;;5107639;28;20284;-48
2024/02/12 02:15:22;;;;;;;10.80;1.10;;;5.80;99.90;;;;;;5107547;28;20189;-48
2024/02/12 02:17:48;;;;;;;3.88;1.23;;;5.70;99.90;;;;;;5106244;28;20044;-50
2024/02/12 02:20:13;;;;;;;6.10;0.85;;;5.60;99.90;;;;;;5107553;28;20042;-48
2024/02/12 02:22:39;;;;;;;3.33;1.00;;;5.60;99.90;;;;;;5106550;28;20266;-47
2024/02/12 02:25:05;;;;;;;3.90;1.00;;;5.50;99.90;;;;;;5107349;28;20016;-49
2024/02/12 02:27:33;;;;;;;3.28;1.10;;;5.50;99.90;;;;;;5106377;28;20178;-48
2024/02/12 02:29:58;;;;;;;4.60;1.10;;;5.50;99.90;;;;;;5106372;28;20129;-49
2024/02/12 02:32:26;;;;;;;5.32;0.95;;;5.40;99.90;;;;;;5107310;28;20020;-47
2024/02/12 02:34:53;;;;;;;3.22;1.15;;;5.30;99.90;;;;;;5106964;28;20100;-49
2024/02/12 02:37:21;;;;;;;5.72;1.10;;;5.20;99.90;;;;;;5107221;28;20107;-49
2024/02/12 02:39:46;;;;;;;5.25;1.20;;;5.20;99.90;;;;;;5106398;28;20155;-47
2024/02/12 02:42:13;;;;;;;3.65;1.15;;;5.20;99.90;;;;;;5107199;28;20043;-49
2024/02/12 02:44:39;;;;;;;6.97;1.10;;;5.20;99.90;;;;;;5107043;28;20039;-48
2024/02/12 02:47:05;;;;;;;3.70;0.98;;;5.20;99.90;;;;;;5106972;28;20100;-49
2024/02/12 02:49:31;;;;;;;5.32;1.13;;;5.20;99.90;;;;;;5107114;28;20031;-46
2024/02/12 02:51:57;;;;;;;6.57;1.73;;;5.20;99.90;;;;;;5107634;28;20060;-48
2024/02/12 02:54:22;;;;;;;4.07;1.10;;;5.20;99.90;;;;;;5106815;28;20324;-46
2024/02/12 02:56:48;;;;;;;7.05;1.35;;;5.10;99.90;;;;;;5106730;28;20024;-47
2024/02/12 02:59:14;;;;;;;6.60;1.20;;;5.00;99.90;;;;;;5106518;28;20039;-49
2024/02/12 03:01:39;;;;;;;6.85;1.45;;;5.00;99.90;;;;;;5106621;28;20020;-48
2024/02/12 03:04:05;;;;;;;4.25;1.23;;;5.00;99.90;;;;;;5106416;28;20035;-46
2024/02/12 03:06:30;;;;;;;6.50;1.13;;;5.10;99.90;;;;;;5106734;28;20186;-49
2024/02/12 03:08:56;;;;;;;3.50;0.95;;;5.20;99.90;;;;;;5105543;28;20043;-49
2024/02/12 03:11:23;;;;;;;8.32;1.35;;;5.30;99.90;;;;;;5106605;28;20282;-49
2024/02/12 03:13:50;;;;;;;2.25;1.08;;;5.40;99.90;;;;;;5106464;28;20044;-48
2024/02/12 03:16:16;;;;;;;4.75;1.00;;;5.40;99.90;;;;;;5106544;28;20204;-48
2024/02/12 03:18:45;;;;;;;3.83;1.10;;;5.30;99.90;;;;;;5105879;28;20050;-49
2024/02/12 03:21:11;;;;;;;4.10;1.20;;;5.30;99.90;;;;;;5106573;28;20032;-47
2024/02/12 03:23:37;;;;;;;3.58;1.05;;;5.20;99.90;;;;;;5106471;28;20034;-49
2024/02/12 03:26:06;;;;;;;4.93;1.00;;;5.20;99.90;;;;;;5105327;28;20027;-46
2024/02/12 03:28:32;;;;;;;4.45;1.05;;;5.10;99.90;;;;;;5106321;28;20039;-46
2024/02/12 03:30:57;;;;;;;5.43;1.10;;;5.10;99.90;;;;;;5106419;28;20062;-47
2024/02/12 03:33:23;;;;;;;6.93;1.33;;;5.00;99.90;;;;;;5106056;28;20028;-45
2024/02/12 03:35:49;;;;;;;2.85;0.98;;;5.00;99.90;;;;;;5105950;28;20240;-49
2024/02/12 03:38:14;;;;;;;3.25;1.17;;;5.10;99.90;;;;;;5106240;28;20038;-48
2024/02/12 03:40:40;;;;;;;4.97;1.10;;;5.10;99.90;;;;;;5106100;28;20036;-49
2024/02/12 03:43:08;;;;;;;4.32;1.00;;;5.00;99.90;;;;;;5106235;28;20024;-48
2024/02/12 03:45:35;;;;;;;3.72;0.95;;;5.00;99.90;;;;;;5105023;28;20020;-48
2024/02/12 03:59:50;;;;;;;4.03;0.90;;;5.00;99.90;;;;;;5106029;28;20378;-47
2024/02/12 04:01:50;;;;;;;3.85;0.80;;;5.00;99.90;;;;;;5105853;28;20099;-46
2024/02/12 04:04:16;;;;;;;6.57;1.08;;;5.00;99.90;;;;;;5104868;28;20040;-45
2024/02/12 04:06:41;;;;;;;6.55;1.13;;;5.00;99.90;;;;;;5105897;28;20125;-49
2024/02/12 04:09:09;;;;;;;6.10;1.15;;;5.00;99.90;;;;;;5105814;28;20019;-47
2024/02/12 04:11:39;;;;;;;6.90;1.20;;;5.00;99.90;;;;;;5105759;28;20077;-49
2024/02/12 04:14:05;;;;;;;6.03;1.30;;;5.00;99.90;;;;;;5105779;28;20039;-48
2024/02/12 04:16:30;;;;;;;6.95;1.23;;;4.90;99.90;;;;;;5107702;28;20059;-48
2024/02/12 04:18:56;;;;;;;6.53;1.02;;;4.90;99.90;;;;;;5109711;28;20036;-48
2024/02/12 04:21:22;;;;;;;5.53;1.42;;;4.90;99.90;;;;;;5109434;28;20024;-48
2024/02/12 04:23:52;;;;;;;8.65;1.30;;;4.90;99.90;;;;;;5109723;28;20024;-49
2024/02/12 04:26:18;;;;;;;;;;;4.90;99.90;;;;;;5109751;28;20254;-48
2024/02/12 04:28:44;;;;;;;5.88;1.15;;;4.90;99.90;;;;;;5109421;28;19908;-46
2024/02/12 04:31:11;;;;;;;9.95;1.30;;;4.90;99.90;;;;;;5109845;28;20035;-49
2024/02/12 04:33:37;;;;;;;6.65;0.90;;;5.00;99.90;;;;;;5109691;28;20035;-49
2024/02/12 04:36:03;;;;;;;4.72;0.98;;;5.00;99.90;;;;;;5109697;28;20323;-47
2024/02/12 04:38:33;;;;;;;4.35;0.95;;;4.90;99.90;;;;;;5109496;28;20024;-48
2024/02/12 04:40:59;;;;;;;3.72;1.00;;;4.90;99.90;;;;;;5109439;28;20028;-49
2024/02/12 04:43:25;;;;;;;5.60;1.13;;;4.90;99.90;;;;;;5108728;28;20031;-47
2024/02/12 04:45:54;;;;;;;6.60;1.30;;;4.80;99.90;;;;;;5109412;28;20016;-47
2024/02/12 04:48:21;;;;;;;6.20;1.10;;;4.80;99.90;;;;;;5109329;28;20043;-48
2024/02/12 04:50:47;;;;;;;6.75;1.10;;;4.80;99.90;;;;;;5108900;28;20117;-48
2024/02/12 04:53:12;;;;;;;7.78;1.73;;;4.80;99.90;;;;;;5108828;28;20297;-49
2024/02/12 04:55:38;;;;;;;6.07;1.27;;;4.80;99.90;;;;;;5109150;28;20312;-49
2024/02/12 04:58:04;;;;;;;8.38;1.30;;;4.70;99.90;;;;;;5109110;28;20335;-45
2024/02/12 05:04:05;;;;;;;7.85;1.30;;;4.60;99.90;;;;;;5109103;28;20342;-45
2024/02/12 05:06:33;;;;;;;6.68;1.20;;;4.60;99.90;;;;;;5109033;28;20031;-48
2024/02/12 05:09:04;;;;;;;10.48;1.63;;;4.60;99.90;;;;;;5108720;28;20028;-48
2024/02/12 05:11:30;;;;;;;7.10;1.10;;;4.60;99.90;;;;;;5108696;28;20079;-49
2024/02/12 05:13:56;;;;;;;10.73;1.73;;;4.70;99.90;;;;;;5108840;28;20146;-48
2024/02/12 05:16:30;;;;;;;6.63;1.42;;;4.70;99.90;;;;;;5107632;28;20035;-47
2024/02/12 05:24:31;;;;;;;6.90;1.60;;;4.80;99.90;;;;;;5107780;28;20174;-48
2024/02/12 05:26:57;;;;;;;5.07;1.08;;;4.90;99.90;;;;;;5108362;28;20032;-49
2024/02/12 05:29:26;;;;;;;5.90;1.13;;;4.90;99.90;;;;;;5108377;28;20089;-47
2024/02/12 05:31:53;;;;;;;10.30;1.80;;;4.90;99.90;;;;;;5108607;28;20024;-47
2024/02/12 05:34:20;;;;;;;6.32;1.00;;;4.90;99.90;;;;;;5107434;28;20036;-48
2024/02/12 05:36:55;;;;;;;6.15;1.30;;;4.80;99.90;;;;;;5108060;28;20028;-48
2024/02/12 05:39:21;;;;;;;6.68;2.35;;;4.80;99.90;;;;;;5108119;28;20032;-48
2024/02/12 05:41:47;;;;;;;11.00;2.03;;;4.80;99.90;;;;;;5108214;28;20031;-46
2024/02/12 05:44:13;;;;;;;4.60;1.10;;;4.80;99.90;;;;;;5107844;28;20032;-48
2024/02/12 05:46:41;;;;;;;8.95;1.67;;;4.80;99.90;;;;;;5108248;28;20028;-48
2024/02/12 05:49:07;;;;;;;8.18;1.33;;;4.80;99.90;;;;;;5107963;28;20028;-48
2024/02/12 05:51:33;;;;;;;7.90;1.20;;;4.80;99.90;;;;;;5108144;28;20046;-48
2024/02/12 05:54:00;;;;;;;7.70;1.55;;;4.80;99.90;;;;;;5107875;28;20067;-46
2024/02/12 05:56:26;;;;;;;8.00;1.67;;;4.80;99.90;;;;;;5107006;28;20028;-49
2024/02/12 05:58:52;;;;;;;5.80;1.15;;;4.80;99.90;;;;;;5107927;28;20027;-48
2024/02/12 06:01:17;;;;;;;4.03;1.00;;;4.70;99.90;;;;;;5107469;28;20035;-47
2024/02/12 06:03:43;;;;;;;8.02;1.50;;;4.70;99.90;;;;;;5107917;28;20020;-46
2024/02/12 06:06:09;;;;;;;7.35;1.10;;;4.70;99.90;;;;;;5107027;28;20020;-47
2024/02/12 06:08:35;;;;;;;10.48;3.22;;;4.60;99.90;;;;;;5107862;28;20078;-46
2024/02/12 06:11:00;;;;;;;11.38;2.83;;;4.50;99.90;;;;;;5107908;28;20024;-46
2024/02/12 06:13:26;;;;;;;10.50;2.78;;;4.50;99.90;;;;;;5107882;28;20034;-48
2024/02/12 06:15:52;;;;;;;9.90;2.20;;;4.40;99.90;;;;;;5106503;28;20039;-48
2024/02/12 06:18:19;;;;;;;10.55;2.95;;;4.40;99.90;;;;;;5107010;28;20113;-47
2024/02/12 06:20:45;;;;;;;10.38;2.80;;;4.40;99.90;;;;;;5107617;28;20082;-47
2024/02/12 06:23:10;;;;;;;10.90;3.50;;;4.40;99.90;;;;;;5107275;28;20023;-46
2024/02/12 06:25:36;;;;;;;8.55;2.55;;;4.30;99.90;;;;;;5107529;28;20028;-46
2024/02/12 06:28:05;;;;;;;11.80;2.42;;;4.30;99.90;;;;;;5106251;28;20024;-47
2024/02/12 06:30:30;;;;;;;9.25;2.53;;;4.40;99.90;;;;;;5107372;28;20031;-49
2024/02/12 06:32:56;;;;;;;9.13;2.60;;;4.30;99.90;;;;;;5107229;28;20039;-46
2024/02/12 06:35:23;;;;;;;15.13;4.85;;;4.30;99.90;;;;;;5107283;28;20024;-49
2024/02/12 06:37:48;;;;;;;13.40;3.88;;;4.30;99.90;;;;;;5107051;28;20091;-47
2024/02/12 06:40:14;;;;;;;14.18;3.85;;;4.30;99.90;;;;;;5106696;28;20201;-48
2024/02/12 06:42:42;;;;;;;5.25;1.50;;;4.30;99.90;;;;;;5106181;28;20121;-48
2024/02/12 06:45:08;;;;;;;6.68;1.35;;;4.30;99.90;;;;;;5106877;28;20032;-49
2024/02/12 06:47:33;;;;;;;6.53;1.70;;;4.30;99.90;;;;;;5106407;28;20286;-48
2024/02/12 06:49:59;;;;;;;10.40;2.38;;;4.30;99.90;;;;;;5106749;28;20028;-49
2024/02/12 06:52:25;;;;;;;6.40;2.03;;;4.30;99.90;;;;;;5105796;28;20095;-48
2024/02/12 06:54:50;;;;;;;8.05;1.52;;;4.30;99.90;;;;;;5106515;28;20031;-46
2024/02/12 06:57:16;;;;;;;8.10;2.70;;;4.20;99.90;;;;;;5106555;28;20047;-47
2024/02/12 06:59:45;;;;;;;8.63;2.60;;;4.30;99.90;;;;;;5106687;28;20032;-47
2024/02/12 07:02:11;;;;;;;9.20;1.88;;;4.30;99.90;;;;;;5106682;28;20031;-48
2024/02/12 07:04:36;;;;;;;8.80;1.95;;;4.40;99.90;;;;;;5106695;28;20083;-48
2024/02/12 07:07:03;;;;;;;9.38;2.58;;;4.40;99.90;;;;;;5106509;28;20077;-49
2024/02/12 07:09:28;;;;;;;8.38;1.83;;;4.40;99.90;;;;;;5106428;28;20030;-49
2024/02/12 07:11:54;;;;;;;8.43;3.00;;;4.40;99.90;;;;;;5106530;28;20027;-47
2024/02/12 07:14:20;;;;;;;14.75;2.55;;;4.40;99.90;;;;;;5106519;28;20312;-46
2024/02/12 07:16:47;;;;;;;8.98;1.60;;;4.30;99.90;;;;;;5105903;28;20034;-48
2024/02/12 07:19:13;;;;;;;11.15;2.17;;;4.30;99.90;;;;;;5106402;28;20036;-48
2024/02/12 07:21:39;;;;;;;8.63;1.73;;;4.30;99.90;;;;;;5106273;28;20095;-46
2024/02/12 07:24:05;;;;;;;10.18;2.15;;;4.30;99.90;;;;;;5106221;28;20023;-47
2024/02/12 07:26:31;;;;;;;9.20;1.48;;;4.30;99.90;;;;;;5106413;28;20084;-46
2024/02/12 07:28:57;;;;;;;8.10;1.58;;;4.30;99.90;;;;;;5105132;28;20035;-47
2024/02/12 07:31:23;;;;;;;9.52;2.30;;;4.30;99.90;;;;;;5105016;28;20028;-48
2024/02/12 07:33:48;;;;;;;9.85;2.25;;;4.30;99.90;;;;;;5106097;28;20037;-46
2024/02/12 07:36:14;;;;;;;12.23;2.30;;;4.40;99.90;;;;;;5104949;28;20306;-48
2024/02/12 07:38:40;;;;;;;7.63;2.10;;;4.40;99.90;;;;;;5105975;28;20062;-48
2024/02/12 07:41:06;;;;;;;9.77;3.03;;;4.40;99.90;;;;;;5106330;28;20020;-49
2024/02/12 07:43:31;;;;;;;9.45;2.47;;;4.40;99.90;;;;;;5104958;28;20297;-46
2024/02/12 07:45:57;;;;;;;10.35;3.40;;;4.30;99.90;;;;;;5105950;28;20289;-47
2024/02/12 07:48:24;;;;;;;10.80;2.10;;;4.30;99.90;;;;;;5104520;28;20031;-47
2024/02/12 07:50:51;;;;;;;10.13;1.85;;;4.40;99.90;;;;;;5086825;28;20104;-48
2024/02/12 07:53:24;;;;;;;11.65;2.17;;;4.40;99.90;;;;;;5105685;28;20365;-48
2024/02/12 07:55:53;;;;;;;7.63;2.20;;;4.40;99.90;;;;;;5105967;28;20047;-47
2024/02/12 07:58:22;;;;;;;12.07;3.28;;;4.40;99.90;;;;;;5105895;28;20297;-48
2024/02/12 08:00:48;;;;;;;7.95;2.03;;;4.40;99.90;;;;;;5105606;28;20031;-48
2024/02/12 08:03:20;;;;;;;6.82;1.50;;;4.40;99.90;;;;;;5105816;28;20023;-48
2024/02/12 08:05:46;;;;;;;10.70;2.05;;;4.40;99.90;;;;;;5105686;28;20032;-48
2024/02/12 08:08:12;;;;;;;11.30;1.90;;;4.40;99.90;;;;;;5105811;28;20016;-46
2024/02/12 08:10:38;;;;;;;8.55;2.30;;;4.40;99.90;;;;;;5087964;28;20035;-50
2024/02/12 08:13:04;;;;;;;6.88;1.73;;;4.40;99.90;;;;;;5105799;28;20032;-48
2024/02/12 08:15:30;;;;;;;7.20;2.55;;;4.60;99.90;;;;;;5105786;28;20317;-46
2024/02/12 08:17:56;;;;;;;9.43;1.70;;;4.80;99.90;;;;;;5105244;28;20040;-48
2024/02/12 08:20:22;;;;;;;10.70;2.10;;;5.10;99.90;;;;;;5105555;28;20055;-45
2024/02/12 08:22:49;;;;;;;7.20;2.13;;;5.50;99.90;;;;;;5105442;28;20069;-46
2024/02/12 08:25:15;;;;;;;9.57;2.25;;;5.90;99.90;;;;;;5105415;28;20043;-46
2024/02/12 08:27:40;;;;;;;9.50;1.98;;;6.30;99.90;;;;;;5105517;28;20036;-48
2024/02/12 08:30:06;;;;;;;8.57;1.95;;;6.60;99.90;;;;;;5087682;28;20250;-49
2024/02/12 08:32:33;;;;;;;6.78;2.47;;;7.00;99.90;;;;;;5105495;28;20024;-48
2024/02/12 08:34:58;;;;;;;13.10;2.33;;;7.40;99.90;;;;;;5105248;28;20036;-46
2024/02/12 08:37:24;;;;;;;7.72;1.52;;;7.80;99.90;;;;;;5104095;28;20050;-48
2024/02/12 08:39:50;;;;;;;8.98;2.05;;;8.20;99.90;;;;;;5105414;28;20032;-48
2024/02/12 08:42:15;;;;;;;7.40;1.98;;;8.70;99.90;;;;;;5105532;28;20054;-49
2024/02/12 08:44:43;;;;;;;10.13;2.47;;;9.30;99.90;;;;;;5105445;28;20016;-49
2024/02/12 08:47:09;;;;;;;8.55;2.85;;;9.40;99.90;;;;;;5104999;28;20066;-49
2024/02/12 08:49:35;;;;;;;6.38;1.83;;;9.80;99.90;;;;;;5105052;28;20281;-48
2024/02/12 08:52:01;;;;;;;7.85;2.75;;;9.90;99.90;;;;;;5105353;28;20037;-50
2024/02/12 08:54:30;;;;;;;15.75;4.30;;;9.10;99.90;;;;;;5105451;28;20082;-49
2024/02/12 08:56:56;;;;;;;13.50;2.55;;;9.00;99.90;;;;;;5105061;28;20035;-49
2024/02/12 08:59:23;;;;;;;23.13;9.30;;;9.10;99.90;;;;;;5104991;28;20035;-52
2024/02/12 09:01:49;;;;;;;12.93;4.55;;;8.60;99.90;;;;;;5105621;28;20020;-52
2024/02/12 09:04:15;;;;;;;13.50;3.92;;;8.10;99.90;;;;;;5107604;28;20058;-51
2024/02/12 09:06:41;;;;;;;7.97;3.15;;;7.80;99.90;;;;;;5107821;28;20027;-49
2024/02/12 09:09:07;;;;;;;10.00;2.97;;;7.70;99.90;;;;;;5108590;28;20052;-49
2024/02/12 09:11:32;;;;;;;12.10;3.67;;;7.80;99.90;;;;;;5108131;28;20051;-49
2024/02/12 09:13:58;;;;;;;9.13;3.20;;;7.80;99.90;;;;;;5108658;28;20024;-50
2024/02/12 09:16:25;;;;;;;6.70;2.40;;;7.70;99.90;;;;;;5108717;28;20031;-48
2024/02/12 09:18:50;;;;;;;8.60;2.10;;;7.70;99.90;;;;;;5108074;28;20250;-48
2024/02/12 09:21:17;;;;;;;6.05;1.33;;;7.50;99.90;;;;;;5108445;28;20024;-46
2024/02/12 09:23:43;;;;;;;9.20;2.30;;;7.50;99.90;;;;;;5108494;28;20024;-48
2024/02/12 09:26:08;;;;;;;7.65;2.42;;;7.50;99.90;;;;;;5107941;28;20090;-49
2024/02/12 09:28:35;;;;;;;7.18;1.75;;;7.50;99.90;;;;;;5108397;28;20020;-49
2024/02/12 09:31:01;;;;;;;4.50;1.67;;;7.50;99.90;;;;;;5108416;28;20051;-50
2024/02/12 09:33:30;;;;;;;6.65;1.80;;;7.50;99.90;;;;;;5108044;28;20032;-47
2024/02/12 09:35:56;;;;;;;6.80;1.67;;;7.50;99.90;;;;;;5108299;28;20019;-49
2024/02/12 09:38:22;;;;;;;5.05;1.40;;;7.50;99.90;;;;;;5107084;28;20307;-48
2024/02/12 09:40:52;;;;;;;8.82;1.50;;;7.60;99.90;;;;;;5107432;28;20089;-49
2024/02/12 09:43:20;;;;;;;6.97;1.60;;;7.60;99.90;;;;;;5106828;28;20024;-49
2024/02/12 09:45:46;;;;;;;5.57;1.63;;;7.70;99.90;;;;;;5107442;28;20058;-49
2024/02/12 09:48:12;;;;;;;8.57;1.77;;;7.90;99.90;;;;;;5107993;28;20032;-50
2024/02/12 09:50:39;;;;;;;11.50;1.55;;;8.80;99.90;;;;;;5107978;28;20048;-50
2024/02/12 09:53:09;;;;;;;5.30;1.38;;;10.40;99.90;;;;;;5107883;28;20027;-50
2024/02/12 09:55:34;;;;;;;7.05;1.90;;;11.40;99.90;;;;;;5107386;28;20062;-50
2024/02/12 09:58:00;;;;;;;4.60;1.50;;;12.20;99.90;;;;;;5107311;28;20032;-50
2024/02/12 10:00:26;;;;;;;3.78;1.17;;;13.20;99.90;;;;;;5107618;28;20024;-50
2024/02/12 10:02:55;;;;;;;6.22;1.40;;;13.40;99.90;;;;;;5107459;28;20032;-50
2024/02/12 10:05:21;;;;;;;6.60;1.38;;;13.50;99.90;;;;;;5107432;28;20052;-49
2024/02/12 10:07:46;;;;;;;7.38;1.80;;;13.50;99.90;;;;;;5107631;28;20054;-51
2024/02/12 10:10:14;;;;;;;4.25;1.38;;;13.70;99.90;;;;;;5107535;28;20055;-50
2024/02/12 10:12:40;;;;;;;3.92;1.80;;;13.20;99.90;;;;;;5106932;28;20028;-50
2024/02/12 10:15:07;;;;;;;5.38;1.20;;;13.20;99.90;;;;;;5106392;28;20025;-48
2024/02/12 10:17:33;;;;;;;4.43;1.20;;;13.40;99.90;;;;;;5106753;28;20375;-49
2024/02/12 10:19:59;;;;;;;6.03;1.92;;;13.60;99.90;;;;;;5106969;28;20194;-50
2024/02/12 10:22:24;;;;;;;6.97;1.60;;;13.90;99.90;;;;;;5107022;28;20312;-49
2024/02/12 10:24:50;;;;;;;5.38;1.15;;;13.80;99.90;;;;;;5107033;28;20028;-50
2024/02/12 10:27:20;;;;;;;5.55;1.33;;;13.90;99.90;;;;;;5106710;28;20035;-50
2024/02/12 10:29:59;;;;;;;5.50;1.40;;;13.80;99.90;;;;;;5106230;28;20054;-50
2024/02/12 10:32:28;;;;;;;6.20;1.67;;;13.90;99.90;;;;;;5107042;28;20044;-51
2024/02/12 10:34:57;;;;;;;5.28;1.65;;;13.80;99.90;;;;;;5107015;28;20059;-51
2024/02/12 10:37:24;;;;;;;8.30;1.63;;;14.00;99.90;;;;;;5106568;28;20167;-51
2024/02/12 10:39:54;;;;;;;7.18;1.40;;;14.60;99.90;;;;;;5106622;28;20024;-50
2024/02/12 10:42:28;;;;;;;5.57;1.13;;;13.90;99.90;;;;;;5106645;28;20146;-51
2024/02/12 10:44:55;;;;;;;6.45;1.65;;;12.40;99.90;;;;;;5105463;28;20099;-50
2024/02/12 10:47:21;;;;;;;9.85;1.90;;;13.00;99.90;;;;;;5106289;28;20080;-51
2024/02/12 10:49:48;;;;;;;4.88;1.10;;;13.70;99.90;;;;;;5105591;28;20036;-50
2024/02/12 10:52:17;;;;;;;5.25;1.45;;;14.10;99.90;;;;;;5106694;28;20032;-50
2024/02/12 10:54:43;;;;;;;4.30;1.15;;;14.70;99.90;;;;;;5105570;28;20032;-51
2024/02/12 10:57:09;;;;;;;3.63;1.13;;;14.60;99.90;;;;;;5106646;28;20036;-50
2024/02/12 10:59:35;;;;;;;6.72;1.88;;;14.30;99.90;;;;;;5105272;28;20055;-50
2024/02/12 11:02:12;;;;;;;5.43;1.52;;;14.40;99.90;;;;;;5105455;28;20193;-50
2024/02/12 11:04:42;;;;;;;5.30;1.45;;;13.50;99.90;;;;;;5105481;28;20051;-51
2024/02/12 11:07:16;;;;;;;3.95;1.13;;;12.10;99.90;;;;;;5105360;28;20070;-49
2024/02/12 11:09:42;;;;;;;3.25;1.13;;;12.50;99.90;;;;;;5105212;28;20142;-48
2024/02/12 11:12:23;;;;;;;5.60;1.25;;;13.40;99.90;;;;;;5106114;28;20023;-48
2024/02/12 11:14:51;;;;;;;7.68;1.38;;;14.10;99.90;;;;;;5106236;28;20081;-50
2024/02/12 11:17:22;;;;;;;5.13;1.40;;;14.50;99.90;;;;;;5105742;28;20266;-50
2024/02/12 11:19:49;;;;;;;4.70;1.08;;;15.20;99.90;;;;;;5105508;28;20031;-50
2024/02/12 11:22:25;;;;;;;4.25;1.33;;;15.40;99.90;;;;;;5106015;28;20122;-48
2024/02/12 11:24:50;;;;;;;5.72;1.40;;;15.40;99.90;;;;;;5105880;28;20020;-51
2024/02/12 11:27:16;;;;;;;3.90;1.00;;;15.50;99.90;;;;;;5105976;28;20070;-51
2024/02/12 11:29:46;;;;;;;5.57;1.10;;;15.30;99.90;;;;;;5104902;28;20028;-50
2024/02/12 11:32:24;;;;;;;13.13;1.58;;;15.20;99.90;;;;;;5105699;28;20214;-51
2024/02/12 11:34:50;;;;;;;4.88;1.10;;;15.50;99.90;;;;;;5105531;28;20063;-51
2024/02/12 11:37:18;;;;;;;8.02;3.00;;;15.80;99.90;;;;;;5105691;28;20040;-51
2024/02/12 11:39:58;;;;;;;3.92;1.15;;;15.40;99.90;;;;;;5105863;28;20024;-50
2024/02/12 11:42:23;;;;;;;52.30;31.05;;;15.60;99.90;;;;;;5105603;28;20178;-51
2024/02/12 11:44:49;;;;;;;28.52;14.07;;;15.80;99.90;;;;;;5104339;28;20055;-51
2024/02/12 11:47:23;;;;;;;139.40;89.80;;;15.50;99.90;;;;;;5105312;28;20047;-51
2024/02/12 11:49:49;;;;;;;25.02;15.60;;;15.40;99.90;;;;;;5105300;28;20065;-51
2024/02/12 11:52:15;;;;;;;10.98;7.95;;;15.70;99.90;;;;;;5105645;28;20161;-51
2024/02/12 11:54:41;;;;;;;4.13;1.80;;;15.90;99.90;;;;;;5105485;28;20036;-50
2024/02/12 11:57:07;;;;;;;7.97;2.95;;;15.90;99.90;;;;;;5103915;28;20146;-50
2024/02/12 11:59:33;;;;;;;6.60;1.83;;;16.00;99.90;;;;;;5105375;28;20345;-52
2024/02/12 12:01:58;;;;;;;4.45;1.30;;;15.60;99.90;;;;;;5105327;28;20028;-50
2024/02/12 12:04:24;;;;;;;5.63;4.00;;;15.40;99.90;;;;;;5105564;28;20028;-49
2024/02/12 12:06:50;;;;;;;5.18;1.80;;;15.50;99.90;;;;;;5104879;28;20274;-51
2024/02/12 12:09:20;;;;;;;4.13;1.35;;;15.90;99.90;;;;;;5104382;28;20036;-48
2024/02/12 12:11:49;;;;;;;4.88;1.98;;;15.90;99.90;;;;;;5104077;28;20070;-51
2024/02/12 12:14:15;;;;;;;6.38;2.20;;;15.90;99.90;;;;;;5104075;28;20044;-50
2024/02/12 12:16:41;;;;;;;5.90;1.20;;;16.10;99.90;;;;;;5104897;28;20069;-50
2024/02/12 12:19:07;;;;;;;4.88;1.25;;;16.30;99.90;;;;;;5105114;28;20224;-50
2024/02/12 12:21:32;;;;;;;3.85;1.20;;;16.50;99.90;;;;;;5105147;28;20285;-51
2024/02/12 12:24:00;;;;;;;5.57;1.17;;;16.10;99.90;;;;;;5104947;28;20300;-51
2024/02/12 12:26:26;;;;;;;8.32;1.70;;;16.40;99.90;;;;;;5104976;28;20040;-51
2024/02/12 12:28:52;;;;;;;5.40;1.00;;;16.20;99.90;;;;;;5105209;28;20322;-52
2024/02/12 12:31:18;;;;;;;3.08;1.33;;;16.10;99.90;;;;;;5104983;28;20051;-49
2024/02/12 12:33:43;;;;;;;4.90;1.00;;;16.10;99.90;;;;;;5105011;28;20024;-50
2024/02/12 12:36:11;;;;;;;5.20;1.30;;;16.00;99.90;;;;;;5104777;28;20032;-51
2024/02/12 12:38:39;;;;;;;7.13;1.42;;;16.30;99.90;;;;;;5109035;28;20020;-51
2024/02/12 12:41:08;;;;;;;3.05;0.90;;;16.00;99.90;;;;;;5109075;28;20050;-52
2024/02/12 12:43:34;;;;;;;3.78;1.27;;;15.60;99.90;;;;;;5109163;28;20087;-51
2024/02/12 12:46:00;;;;;;;3.05;0.90;;;15.70;99.90;;;;;;5108803;28;20024;-50
2024/02/12 12:48:26;;;;;;;6.00;2.58;;;15.40;99.90;;;;;;5108838;28;20031;-51
2024/02/12 12:50:52;;;;;;;4.07;1.50;;;15.40;99.90;;;;;;5108617;28;20028;-51
2024/02/12 12:53:18;;;;;;;6.05;1.40;;;15.40;99.90;;;;;;5109231;28;20057;-52
2024/02/12 12:55:44;;;;;;;3.90;1.40;;;16.00;99.90;;;;;;5108758;28;20296;-52
2024/02/12 12:58:10;;;;;;;7.20;1.33;;;16.40;99.90;;;;;;5109003;28;20063;-50
2024/02/12 13:00:37;;;;;;;3.25;1.17;;;16.50;99.90;;;;;;5108610;28;20027;-51
2024/02/12 13:03:03;;;;;;;4.60;1.55;;;16.00;99.90;;;;;;5108222;28;20028;-52
2024/02/12 13:05:29;;;;;;;5.25;1.30;;;16.10;99.90;;;;;;5108831;28;20028;-51
2024/02/12 13:07:56;;;;;;;4.80;1.30;;;16.20;99.90;;;;;;5108203;28;20035;-51
2024/02/12 13:10:21;;;;;;;4.32;1.35;;;15.80;99.90;;;;;;5108764;28;20077;-52